Time;durP1;ratioP1;P1;durP2;ratioP2;P2;SDS_P1;SDS_P2;PMS_P1;PMS_P2;Temp;Humidity;BMP_temperature;BMP_pressure;BME280_temperature;BME280_humidity;BME280_pressure;Samples;Min_cycle;Max_cycle;Signal;HPM_P1;HPM_P2
2024/02/05 00:00:53;;;;;;;13.20;3.47;;;;;;;;;;4989918;28;20110;-59
2024/02/05 00:03:19;;;;;;;17.17;2.95;;;;;;;;;;4994067;28;20061;-60
2024/02/05 00:05:45;;;;;;;15.68;3.22;;;;;;;;;;4993473;28;20125;-59
2024/02/05 00:08:11;;;;;;;17.02;2.83;;;;;;;;;;4991188;28;20045;-59
2024/02/05 00:10:39;;;;;;;14.95;4.25;;;;;;;;;;4989813;28;20026;-60
2024/02/05 00:13:05;;;;;;;10.35;2.60;;;;;;;;;;4995491;28;20084;-59
2024/02/05 00:15:31;;;;;;;13.02;2.85;;;;;;;;;;4990109;28;20085;-59
2024/02/05 00:17:57;;;;;;;14.80;3.17;;;;;;;;;;4987852;28;20026;-59
2024/02/05 00:20:23;;;;;;;14.80;2.67;;;;;;;;;;4991931;28;20037;-61
2024/02/05 00:22:49;;;;;;;13.38;3.50;;;;;;;;;;4994431;28;20050;-58
2024/02/05 00:25:15;;;;;;;17.73;3.63;;;;;;;;;;4994404;28;20026;-57
2024/02/05 00:27:41;;;;;;;19.83;3.67;;;;;;;;;;4986053;28;20026;-60
2024/02/05 00:30:07;;;;;;;20.27;3.35;;;;;;;;;;4991878;28;20033;-58
2024/02/05 00:32:33;;;;;;;10.98;3.15;;;;;;;;;;4992979;28;20058;-60
2024/02/05 00:34:59;;;;;;;20.00;3.17;;;;;;;;;;4991881;28;20054;-58
2024/02/05 00:37:26;;;;;;;13.95;3.25;;;;;;;;;;4988312;28;20109;-59
2024/02/05 00:39:52;;;;;;;31.15;4.15;;;;;;;;;;4993533;28;20019;-59
2024/02/05 00:42:18;;;;;;;19.10;3.90;;;;;;;;;;4992311;28;20459;-58
2024/02/05 00:44:44;;;;;;;21.88;3.83;;;;;;;;;;4989610;28;20033;-60
2024/02/05 00:47:10;;;;;;;18.90;3.95;;;;;;;;;;4992733;28;20083;-58
2024/02/05 00:49:36;;;;;;;18.75;3.72;;;;;;;;;;4991979;28;20476;-59
2024/02/05 00:52:02;;;;;;;23.60;4.28;;;;;;;;;;4993677;28;20562;-60
2024/02/05 00:54:29;;;;;;;24.13;3.92;;;;;;;;;;4994087;28;20034;-59
2024/02/05 00:56:55;;;;;;;25.30;4.07;;;;;;;;;;4993597;28;20388;-59
2024/02/05 00:59:21;;;;;;;20.30;3.53;;;;;;;;;;4992532;28;20044;-60
2024/02/05 01:01:47;;;;;;;28.50;4.80;;;;;;;;;;4991193;28;20057;-59
2024/02/05 01:04:13;;;;;;;28.25;4.18;;;;;;;;;;4990341;28;20068;-60
2024/02/05 01:06:39;;;;;;;19.33;3.65;;;;;;;;;;4997615;28;20030;-60
2024/02/05 01:09:09;;;;;;;23.30;3.92;;;;;;;;;;4993301;28;21604;-59
2024/02/05 01:11:36;;;;;;;18.17;4.35;;;;;;;;;;4996529;28;20400;-59
2024/02/05 01:14:03;;;;;;;20.25;4.63;;;;;;;;;;4991666;28;20057;-60
2024/02/05 01:16:29;;;;;;;34.50;4.20;;;;;;;;;;4993599;28;20369;-58
2024/02/05 01:18:55;;;;;;;23.38;4.20;;;;;;;;;;4992192;28;20033;-59
2024/02/05 01:21:21;;;;;;;28.00;5.05;;;;;;;;;;4990341;28;20027;-58
2024/02/05 01:23:48;;;;;;;17.27;4.10;;;;;;;;;;4993426;28;20049;-59
2024/02/05 01:26:14;;;;;;;18.63;4.38;;;;;;;;;;4993350;28;20438;-60
2024/02/05 01:28:40;;;;;;;17.40;3.50;;;;;;;;;;4991982;28;20024;-60
2024/02/05 01:31:07;;;;;;;35.92;5.43;;;;;;;;;;4993936;28;20408;-60
2024/02/05 01:33:33;;;;;;;37.63;4.80;;;;;;;;;;4987527;28;20026;-60
2024/02/05 01:35:59;;;;;;;26.42;4.13;;;;;;;;;;4992539;28;20022;-59
2024/02/05 01:38:24;;;;;;;18.38;4.82;;;;;;;;;;4992391;28;20050;-59
2024/02/05 01:40:50;;;;;;;20.83;5.13;;;;;;;;;;4991387;28;20060;-59
2024/02/05 01:43:17;;;;;;;22.77;3.53;;;;;;;;;;4984844;28;20080;-59
2024/02/05 01:45:43;;;;;;;24.67;4.40;;;;;;;;;;4992303;28;20026;-59
2024/02/05 01:48:10;;;;;;;28.15;4.45;;;;;;;;;;4994230;28;20052;-59
2024/02/05 01:50:38;;;;;;;18.45;5.03;;;;;;;;;;4996691;28;20018;-59
2024/02/05 01:53:04;;;;;;;32.42;4.57;;;;;;;;;;4991846;28;20145;-60
2024/02/05 01:55:32;;;;;;;31.60;3.83;;;;;;;;;;4995754;28;20034;-60
2024/02/05 01:57:58;;;;;;;33.75;5.57;;;;;;;;;;4994413;28;20477;-60
2024/02/05 02:00:25;;;;;;;23.70;4.15;;;;;;;;;;4994056;28;20030;-60
2024/02/05 02:02:51;;;;;;;29.85;4.88;;;;;;;;;;4993154;28;20018;-58
2024/02/05 02:05:17;;;;;;;23.85;4.68;;;;;;;;;;4997173;28;20034;-59
2024/02/05 02:07:43;;;;;;;28.70;4.63;;;;;;;;;;4995922;28;20034;-59
2024/02/05 02:10:11;;;;;;;31.30;5.70;;;;;;;;;;4996545;28;20220;-58
2024/02/05 02:12:37;;;;;;;19.80;4.85;;;;;;;;;;4992633;28;20022;-57
2024/02/05 02:15:04;;;;;;;21.10;5.38;;;;;;;;;;4997247;28;20058;-59
2024/02/05 02:17:32;;;;;;;30.08;5.20;;;;;;;;;;4997591;28;20113;-60
2024/02/05 02:19:58;;;;;;;27.33;4.75;;;;;;;;;;4998509;28;20077;-58
2024/02/05 02:22:39;;;;;;;29.50;4.82;;;;;;;;;;4997140;28;20022;-58
2024/02/05 02:25:09;;;;;;;26.48;5.20;;;;;;;;;;4998823;28;20682;-60
2024/02/05 02:27:35;;;;;;;29.23;5.05;;;;;;;;;;4994018;28;20022;-60
2024/02/05 02:30:02;;;;;;;18.50;5.05;;;;;;;;;;4994737;28;20038;-58
2024/02/05 02:32:37;;;;;;;27.75;4.97;;;;;;;;;;4999966;28;20029;-58
2024/02/05 02:35:27;;;;;;;29.85;4.05;;;;;;;;;;4995764;28;20048;-58
2024/02/05 02:38:07;;;;;;;21.98;4.18;;;;;;;;;;4984621;28;20030;-59
2024/02/05 02:40:34;;;;;;;25.40;4.63;;;;;;;;;;4980408;28;20113;-59
2024/02/05 02:43:02;;;;;;;35.60;4.70;;;;;;;;;;4985890;28;20031;-59
2024/02/05 02:45:29;;;;;;;24.98;5.35;;;;;;;;;;4988610;28;20467;-61
2024/02/05 02:47:55;;;;;;;24.80;4.75;;;;;;;;;;4993114;28;20030;-61
2024/02/05 02:50:21;;;;;;;32.28;5.60;;;;;;;;;;4992446;28;20030;-60
2024/02/05 02:52:47;;;;;;;30.05;4.90;;;;;;;;;;4985476;28;20039;-60
2024/02/05 02:55:14;;;;;;;35.85;5.60;;;;;;;;;;4996064;28;20034;-60
2024/02/05 02:57:40;;;;;;;34.22;5.10;;;;;;;;;;4987215;28;20018;-59
2024/02/05 03:00:08;;;;;;;22.00;4.80;;;;;;;;;;4992064;28;20045;-60
2024/02/05 03:02:34;;;;;;;36.10;6.05;;;;;;;;;;4995324;28;20030;-58
2024/02/05 03:05:00;;;;;;;29.25;4.60;;;;;;;;;;4998017;28;20049;-60
2024/02/05 03:07:26;;;;;;;34.90;6.10;;;;;;;;;;4994634;28;20026;-59
2024/02/05 03:09:53;;;;;;;32.28;5.65;;;;;;;;;;4996507;28;20034;-58
2024/02/05 03:12:19;;;;;;;34.95;4.95;;;;;;;;;;4993189;28;20034;-57
2024/02/05 03:14:45;;;;;;;25.45;5.30;;;;;;;;;;4994603;28;20129;-59
2024/02/05 03:17:11;;;;;;;28.60;4.72;;;;;;;;;;4983344;28;20113;-60
2024/02/05 03:19:37;;;;;;;40.72;4.97;;;;;;;;;;4988290;28;20027;-59
2024/02/05 03:22:03;;;;;;;34.60;5.57;;;;;;;;;;4979905;28;20042;-60
2024/02/05 03:24:29;;;;;;;35.55;5.38;;;;;;;;;;4993887;28;20105;-59
2024/02/05 03:26:55;;;;;;;32.53;4.88;;;;;;;;;;4992212;28;20165;-59
2024/02/05 03:29:21;;;;;;;35.78;4.97;;;;;;;;;;4994848;28;20515;-60
2024/02/05 03:31:47;;;;;;;42.08;5.82;;;;;;;;;;5000299;28;20014;-60
2024/02/05 03:34:14;;;;;;;30.35;5.50;;;;;;;;;;4995737;28;20030;-60
2024/02/05 03:36:40;;;;;;;27.85;5.30;;;;;;;;;;4993700;28;20018;-60
2024/02/05 03:39:06;;;;;;;39.33;5.95;;;;;;;;;;4995395;28;20083;-58
2024/02/05 03:41:32;;;;;;;41.63;6.07;;;;;;;;;;4988876;28;20072;-60
2024/02/05 03:43:58;;;;;;;41.17;5.68;;;;;;;;;;4997079;28;20484;-58
2024/02/05 03:46:24;;;;;;;27.13;4.60;;;;;;;;;;4992706;28;20027;-60
2024/02/05 03:48:54;;;;;;;26.90;5.30;;;;;;;;;;4995255;28;20030;-60
2024/02/05 03:51:20;;;;;;;35.90;5.20;;;;;;;;;;4988168;28;20432;-60
2024/02/05 03:53:46;;;;;;;41.15;6.38;;;;;;;;;;4994028;28;20041;-59
2024/02/05 03:56:12;;;;;;;33.88;5.88;;;;;;;;;;4991879;28;20451;-59
2024/02/05 03:58:39;;;;;;;36.92;5.25;;;;;;;;;;4991992;28;20106;-60
2024/02/05 04:01:05;;;;;;;32.70;7.18;;;;;;;;;;4990283;28;20033;-59
2024/02/05 04:03:31;;;;;;;34.50;5.57;;;;;;;;;;4993257;28;20054;-60
2024/02/05 04:05:57;;;;;;;37.58;4.95;;;;;;;;;;4993768;28;20583;-60
2024/02/05 04:08:26;;;;;;;35.28;4.97;;;;;;;;;;4998193;28;20045;-60
2024/02/05 04:10:52;;;;;;;29.10;6.03;;;;;;;;;;4990102;28;20609;-58
2024/02/05 04:13:19;;;;;;;30.67;6.10;;;;;;;;;;4991231;28;20441;-58
2024/02/05 04:15:45;;;;;;;35.05;5.60;;;;;;;;;;4993542;28;20039;-58
2024/02/05 04:18:11;;;;;;;30.55;5.55;;;;;;;;;;4989563;28;20407;-60
2024/02/05 04:20:36;;;;;;;38.03;5.47;;;;;;;;;;4986746;28;20034;-59
2024/02/05 04:23:02;;;;;;;30.25;5.88;;;;;;;;;;4993614;28;20026;-59
2024/02/05 04:25:28;;;;;;;33.78;4.90;;;;;;;;;;4985081;28;20037;-57
2024/02/05 04:27:54;;;;;;;34.35;5.40;;;;;;;;;;4995615;28;20105;-59
2024/02/05 04:30:28;;;;;;;24.25;4.38;;;;;;;;;;4990218;28;20026;-58
2024/02/05 04:32:56;;;;;;;27.95;4.90;;;;;;;;;;4987497;28;20030;-57
2024/02/05 04:35:22;;;;;;;36.28;4.38;;;;;;;;;;4992136;28;20030;-60
2024/02/05 04:37:48;;;;;;;33.13;5.47;;;;;;;;;;4992440;28;20033;-58
2024/02/05 04:40:14;;;;;;;38.95;7.68;;;;;;;;;;4991317;28;20026;-59
2024/02/05 04:42:40;;;;;;;36.88;5.60;;;;;;;;;;4985036;28;20461;-59
2024/02/05 04:45:06;;;;;;;40.05;5.68;;;;;;;;;;4989557;28;20124;-60
2024/02/05 04:47:32;;;;;;;36.03;5.60;;;;;;;;;;4994183;28;20583;-59
2024/02/05 04:49:58;;;;;;;34.60;5.30;;;;;;;;;;4991805;28;20031;-59
2024/02/05 04:52:25;;;;;;;25.33;4.70;;;;;;;;;;4989863;28;20535;-60
2024/02/05 04:54:51;;;;;;;38.63;6.18;;;;;;;;;;4994377;28;20042;-59
2024/02/05 04:57:17;;;;;;;31.98;5.55;;;;;;;;;;4989060;28;20396;-59
2024/02/05 04:59:42;;;;;;;32.55;5.50;;;;;;;;;;4991327;28;20484;-59
2024/02/05 05:02:09;;;;;;;23.45;5.30;;;;;;;;;;4995294;28;20102;-60
2024/02/05 05:04:36;;;;;;;36.60;5.82;;;;;;;;;;4991699;28;20080;-60
2024/02/05 05:07:02;;;;;;;31.48;4.88;;;;;;;;;;4995556;28;20018;-60
2024/02/05 05:09:28;;;;;;;24.00;4.10;;;;;;;;;;4983970;28;20101;-57
2024/02/05 05:11:54;;;;;;;36.05;5.22;;;;;;;;;;4994360;28;20023;-59
2024/02/05 05:14:20;;;;;;;37.35;5.72;;;;;;;;;;4998435;28;20550;-60
2024/02/05 05:16:46;;;;;;;37.33;5.20;;;;;;;;;;4989157;28;20072;-60
2024/02/05 05:19:12;;;;;;;19.95;4.93;;;;;;;;;;4996328;28;20472;-59
2024/02/05 05:21:38;;;;;;;30.65;5.90;;;;;;;;;;4989970;28;20038;-59
2024/02/05 05:24:04;;;;;;;35.05;5.68;;;;;;;;;;4996368;28;20109;-60
2024/02/05 05:26:30;;;;;;;29.65;4.45;;;;;;;;;;4993179;28;20116;-58
2024/02/05 05:28:56;;;;;;;28.20;5.60;;;;;;;;;;4993639;28;20034;-60
2024/02/05 05:31:22;;;;;;;27.13;5.82;;;;;;;;;;4986329;28;20034;-59
2024/02/05 05:33:48;;;;;;;26.08;4.65;;;;;;;;;;4988848;28;20022;-60
2024/02/05 05:36:14;;;;;;;33.97;5.05;;;;;;;;;;4996324;28;20792;-60
2024/02/05 05:38:40;;;;;;;43.75;5.50;;;;;;;;;;4991948;28;20748;-60
2024/02/05 05:41:06;;;;;;;27.55;4.82;;;;;;;;;;4992937;28;20044;-59
2024/02/05 05:43:32;;;;;;;32.38;5.47;;;;;;;;;;4990435;28;20033;-59
2024/02/05 05:45:58;;;;;;;24.05;5.00;;;;;;;;;;4995114;28;20026;-60
2024/02/05 05:48:24;;;;;;;40.10;6.13;;;;;;;;;;4998345;28;20036;-60
2024/02/05 05:50:51;;;;;;;31.25;5.18;;;;;;;;;;4987297;28;20041;-58
2024/02/05 05:53:17;;;;;;;29.33;5.20;;;;;;;;;;4987571;28;20038;-60
2024/02/05 05:55:43;;;;;;;33.22;5.47;;;;;;;;;;4988932;28;20617;-60
2024/02/05 05:58:09;;;;;;;40.00;7.07;;;;;;;;;;4993187;28;20061;-58
2024/02/05 06:00:35;;;;;;;40.55;5.20;;;;;;;;;;4988699;28;20504;-60
2024/02/05 06:03:02;;;;;;;27.73;5.53;;;;;;;;;;4993337;28;20082;-59
2024/02/05 06:05:28;;;;;;;21.85;5.68;;;;;;;;;;4987283;28;20117;-60
2024/02/05 06:07:54;;;;;;;39.53;5.43;;;;;;;;;;4993006;28;20581;-60
2024/02/05 06:10:20;;;;;;;32.33;5.70;;;;;;;;;;4987459;28;20042;-59
2024/02/05 06:12:46;;;;;;;30.30;6.78;;;;;;;;;;4989540;28;20529;-60
2024/02/05 06:15:14;;;;;;;36.90;5.28;;;;;;;;;;4994316;28;20034;-60
2024/02/05 06:17:40;;;;;;;31.17;6.05;;;;;;;;;;4991563;28;20024;-59
2024/02/05 06:20:07;;;;;;;32.65;5.68;;;;;;;;;;4995783;28;20038;-57
2024/02/05 06:22:35;;;;;;;38.25;6.90;;;;;;;;;;4993007;28;20029;-60
2024/02/05 06:25:01;;;;;;;27.00;5.80;;;;;;;;;;4993533;28;20034;-60
2024/02/05 06:27:27;;;;;;;35.60;7.07;;;;;;;;;;4995291;28;20034;-60
2024/02/05 06:29:53;;;;;;;38.20;7.00;;;;;;;;;;5000363;28;20515;-60
2024/02/05 06:32:19;;;;;;;43.47;6.65;;;;;;;;;;4984158;28;20118;-59
2024/02/05 06:34:45;;;;;;;30.98;5.20;;;;;;;;;;4986973;28;20492;-58
2024/02/05 06:37:11;;;;;;;28.48;6.43;;;;;;;;;;4990593;28;20481;-60
2024/02/05 06:39:39;;;;;;;34.72;6.05;;;;;;;;;;4988522;28;20041;-60
2024/02/05 06:42:05;;;;;;;27.00;5.72;;;;;;;;;;4983915;28;20625;-59
2024/02/05 06:44:31;;;;;;;46.80;7.03;;;;;;;;;;4989348;28;20431;-60
2024/02/05 06:46:57;;;;;;;18.95;4.50;;;;;;;;;;4993604;28;20546;-60
2024/02/05 06:49:23;;;;;;;35.60;5.60;;;;;;;;;;4988045;28;20042;-59
2024/02/05 06:51:49;;;;;;;25.65;4.90;;;;;;;;;;4988860;28;20031;-60
2024/02/05 06:54:15;;;;;;;36.10;6.78;;;;;;;;;;4993200;28;20103;-58
2024/02/05 06:56:41;;;;;;;29.65;5.38;;;;;;;;;;4995031;28;20432;-60
2024/02/05 06:59:07;;;;;;;21.52;4.32;;;;;;;;;;5005518;28;20026;-59
2024/02/05 07:01:33;;;;;;;20.23;5.57;;;;;;;;;;5000536;28;20060;-59
2024/02/05 07:03:59;;;;;;;21.92;4.75;;;;;;;;;;4994157;28;20108;-59
2024/02/05 07:06:25;;;;;;;25.13;4.22;;;;;;;;;;4987246;28;20041;-58
2024/02/05 07:08:51;;;;;;;21.75;4.15;;;;;;;;;;4996421;28;20034;-60
2024/02/05 07:11:17;;;;;;;33.10;5.13;;;;;;;;;;4986928;28;20030;-58
2024/02/05 07:13:43;;;;;;;17.90;3.80;;;;;;;;;;4990570;28;20034;-56
2024/02/05 07:16:15;;;;;;;23.33;4.50;;;;;;;;;;4996687;28;20044;-60
2024/02/05 07:18:42;;;;;;;25.42;4.55;;;;;;;;;;4996531;28;20022;-60
2024/02/05 07:21:08;;;;;;;26.73;4.30;;;;;;;;;;4991483;28;20030;-60
2024/02/05 07:23:35;;;;;;;24.95;4.55;;;;;;;;;;4990685;28;20393;-59
2024/02/05 07:26:01;;;;;;;23.45;5.00;;;;;;;;;;4995157;28;20054;-60
2024/02/05 07:28:27;;;;;;;27.77;4.55;;;;;;;;;;4994763;28;20041;-60
2024/02/05 07:30:54;;;;;;;31.20;4.90;;;;;;;;;;4992135;28;20035;-60
2024/02/05 07:33:20;;;;;;;27.13;4.35;;;;;;;;;;4995335;28;20101;-59
2024/02/05 07:35:46;;;;;;;23.65;3.53;;;;;;;;;;4993605;28;20030;-60
2024/02/05 07:38:12;;;;;;;21.27;4.78;;;;;;;;;;4992940;28;20616;-60
2024/02/05 07:40:38;;;;;;;16.00;4.20;;;;;;;;;;4996501;28;20035;-60
2024/02/05 07:43:04;;;;;;;27.42;4.53;;;;;;;;;;4995174;28;20034;-60
2024/02/05 07:45:30;;;;;;;20.58;4.45;;;;;;;;;;4994912;28;20034;-60
2024/02/05 07:47:56;;;;;;;24.33;3.95;;;;;;;;;;4995549;28;20025;-60
2024/02/05 07:50:22;;;;;;;30.67;4.25;;;;;;;;;;4994431;28;20037;-59
2024/02/05 07:52:49;;;;;;;33.03;4.95;;;;;;;;;;4993185;28;20026;-60
2024/02/05 07:55:15;;;;;;;24.90;3.88;;;;;;;;;;4994290;28;20065;-60
2024/02/05 07:57:41;;;;;;;26.30;5.07;;;;;;;;;;4989324;28;20058;-59
2024/02/05 08:00:07;;;;;;;21.40;3.58;;;;;;;;;;4993895;28;20034;-60
2024/02/05 08:02:34;;;;;;;25.48;4.00;;;;;;;;;;4993157;28;20035;-60
2024/02/05 08:05:00;;;;;;;15.13;3.40;;;;;;;;;;4997010;28;20057;-60
2024/02/05 08:07:26;;;;;;;21.80;3.67;;;;;;;;;;4987101;28;20072;-60
2024/02/05 08:09:52;;;;;;;17.02;3.50;;;;;;;;;;4982498;28;20030;-60
2024/02/05 08:12:18;;;;;;;33.25;4.03;;;;;;;;;;4985022;28;20030;-59
2024/02/05 08:14:46;;;;;;;22.65;4.38;;;;;;;;;;4986795;28;20026;-59
2024/02/05 08:17:12;;;;;;;42.00;5.18;;;;;;;;;;4987601;28;20023;-59
2024/02/05 08:19:38;;;;;;;25.17;4.40;;;;;;;;;;4990965;28;20730;-60
2024/02/05 08:22:04;;;;;;;34.38;4.50;;;;;;;;;;4981989;28;20053;-59
2024/02/05 08:24:30;;;;;;;25.88;4.93;;;;;;;;;;4988547;28;20033;-60
2024/02/05 08:26:56;;;;;;;25.50;4.22;;;;;;;;;;4985704;28;20031;-60
2024/02/05 08:29:22;;;;;;;32.33;4.70;;;;;;;;;;4983982;28;20027;-59
2024/02/05 08:31:49;;;;;;;25.38;4.25;;;;;;;;;;4983993;28;20041;-60
2024/02/05 08:34:15;;;;;;;29.88;3.92;;;;;;;;;;4985058;28;20036;-60
2024/02/05 08:36:41;;;;;;;28.13;6.18;;;;;;;;;;4984939;28;20088;-59
2024/02/05 08:39:09;;;;;;;20.58;3.88;;;;;;;;;;4991133;28;20026;-60
2024/02/05 08:41:35;;;;;;;26.23;4.80;;;;;;;;;;4987340;28;20026;-60
2024/02/05 08:44:02;;;;;;;35.45;4.20;;;;;;;;;;4993237;28;20018;-59
2024/02/05 08:46:28;;;;;;;23.60;4.57;;;;;;;;;;4984015;28;20027;-59
2024/02/05 08:48:54;;;;;;;23.48;5.95;;;;;;;;;;4988711;28;20374;-59
2024/02/05 08:51:20;;;;;;;15.80;4.30;;;;;;;;;;4992714;28;20157;-60
2024/02/05 08:53:46;;;;;;;21.48;4.03;;;;;;;;;;4990269;28;20035;-60
2024/02/05 08:56:12;;;;;;;20.50;4.65;;;;;;;;;;4980974;28;20042;-60
2024/02/05 08:58:38;;;;;;;25.23;4.70;;;;;;;;;;4993427;28;20026;-60
2024/02/05 09:01:04;;;;;;;18.13;4.07;;;;;;;;;;4995580;28;20030;-60
2024/02/05 09:03:30;;;;;;;19.48;3.95;;;;;;;;;;4984667;28;20042;-59
2024/02/05 09:05:56;;;;;;;17.85;4.15;;;;;;;;;;4987108;28;20026;-58
2024/02/05 09:08:22;;;;;;;24.45;4.50;;;;;;;;;;4987168;28;20435;-59
2024/02/05 09:10:48;;;;;;;21.50;4.15;;;;;;;;;;4981880;28;20047;-60
2024/02/05 09:13:15;;;;;;;23.90;4.03;;;;;;;;;;4983846;28;20095;-59
2024/02/05 09:15:42;;;;;;;30.10;4.28;;;;;;;;;;4984096;28;20473;-60
2024/02/05 09:18:09;;;;;;;21.80;3.78;;;;;;;;;;4986411;28;20019;-61
2024/02/05 09:20:35;;;;;;;21.45;3.95;;;;;;;;;;4983084;28;20428;-57
2024/02/05 09:23:01;;;;;;;26.15;4.90;;;;;;;;;;4984573;28;20027;-59
2024/02/05 09:25:27;;;;;;;17.42;3.45;;;;;;;;;;4990696;28;20113;-60
2024/02/05 09:27:53;;;;;;;19.60;3.45;;;;;;;;;;4986096;28;20369;-59
2024/02/05 09:30:21;;;;;;;28.65;4.97;;;;;;;;;;4980536;28;20032;-57
2024/02/05 09:32:47;;;;;;;33.03;4.47;;;;;;;;;;4988383;28;20034;-59
2024/02/05 09:35:13;;;;;;;23.85;4.68;;;;;;;;;;4993069;28;20026;-60
2024/02/05 09:37:39;;;;;;;23.77;3.90;;;;;;;;;;4989696;28;20014;-59
2024/02/05 09:40:05;;;;;;;26.23;4.70;;;;;;;;;;4989348;28;20033;-59
2024/02/05 09:42:31;;;;;;;31.67;4.15;;;;;;;;;;4989671;28;20101;-60
2024/02/05 09:44:57;;;;;;;25.73;3.53;;;;;;;;;;4991595;28;20661;-63
2024/02/05 09:47:25;;;;;;;19.48;5.00;;;;;;;;;;4991688;28;20030;-60
2024/02/05 09:49:54;;;;;;;22.75;4.07;;;;;;;;;;4989881;28;20094;-59
2024/02/05 09:52:22;;;;;;;30.77;4.40;;;;;;;;;;4986055;28;20034;-59
2024/02/05 09:54:48;;;;;;;21.52;4.05;;;;;;;;;;4994852;28;20116;-60
2024/02/05 09:57:17;;;;;;;25.65;3.92;;;;;;;;;;4990002;28;20098;-60
2024/02/05 09:59:43;;;;;;;26.08;4.22;;;;;;;;;;4987154;28;20026;-60
2024/02/05 10:02:10;;;;;;;17.98;3.75;;;;;;;;;;4986147;28;20104;-60
2024/02/05 10:04:38;;;;;;;15.48;3.65;;;;;;;;;;4996591;28;20022;-60
2024/02/05 10:07:06;;;;;;;25.35;3.35;;;;;;;;;;4999597;28;20599;-59
2024/02/05 10:09:32;;;;;;;16.10;3.22;;;;;;;;;;4991691;28;20037;-60
2024/02/05 10:12:00;;;;;;;19.67;3.53;;;;;;;;;;4993175;28;20538;-60
2024/02/05 10:14:26;;;;;;;19.75;4.05;;;;;;;;;;4983809;28;20031;-59
2024/02/05 10:16:52;;;;;;;24.05;4.68;;;;;;;;;;4987312;28;20042;-60
2024/02/05 10:19:18;;;;;;;33.53;3.83;;;;;;;;;;4994067;28;20037;-60
2024/02/05 10:21:44;;;;;;;26.23;4.38;;;;;;;;;;4997140;28;20033;-58
2024/02/05 10:24:14;;;;;;;26.35;4.50;;;;;;;;;;4998140;28;20059;-57
2024/02/05 10:26:40;;;;;;;19.35;3.38;;;;;;;;;;4992917;28;20025;-60
2024/02/05 10:29:07;;;;;;;19.40;3.53;;;;;;;;;;4994517;28;20164;-58
2024/02/05 10:31:33;;;;;;;27.33;4.55;;;;;;;;;;4991788;28;20038;-58
2024/02/05 10:33:59;;;;;;;26.05;4.30;;;;;;;;;;4994607;28;20041;-60
2024/02/05 10:36:25;;;;;;;20.85;3.33;;;;;;;;;;4988382;28;20030;-60
2024/02/05 10:38:51;;;;;;;13.50;2.95;;;;;;;;;;4996386;28;20507;-59
2024/02/05 10:41:17;;;;;;;16.48;3.60;;;;;;;;;;4990373;28;20030;-59
2024/02/05 10:43:44;;;;;;;20.20;3.83;;;;;;;;;;4993735;28;20033;-59
2024/02/05 10:46:10;;;;;;;22.25;4.45;;;;;;;;;;4991646;28;20030;-59
2024/02/05 10:48:36;;;;;;;29.63;4.13;;;;;;;;;;4994423;28;20044;-60
2024/02/05 10:51:03;;;;;;;22.92;4.20;;;;;;;;;;4988082;28;20664;-60
2024/02/05 10:53:29;;;;;;;29.15;3.60;;;;;;;;;;4982931;28;20062;-60
2024/02/05 10:56:01;;;;;;;20.85;3.55;;;;;;;;;;4997062;28;20042;-59
2024/02/05 10:58:27;;;;;;;15.27;3.42;;;;;;;;;;4991392;28;20023;-60
2024/02/05 11:00:58;;;;;;;16.80;3.45;;;;;;;;;;4994503;28;20038;-60
2024/02/05 11:03:25;;;;;;;19.98;3.70;;;;;;;;;;4993211;28;20018;-60
2024/02/05 11:05:52;;;;;;;19.67;3.60;;;;;;;;;;4995914;28;20029;-60
2024/02/05 11:08:23;;;;;;;19.08;3.40;;;;;;;;;;4996932;28;20027;-60
2024/02/05 11:10:51;;;;;;;31.63;4.18;;;;;;;;;;4985477;28;20066;-60
2024/02/05 11:13:37;;;;;;;20.20;3.58;;;;;;;;;;4989222;28;20042;-60
2024/02/05 11:16:04;;;;;;;21.70;3.20;;;;;;;;;;4996826;28;20100;-60
2024/02/05 11:18:31;;;;;;;10.32;3.28;;;;;;;;;;4987685;28;20101;-59
2024/02/05 11:20:58;;;;;;;22.48;3.95;;;;;;;;;;4983846;28;20050;-59
2024/02/05 11:23:25;;;;;;;21.05;3.22;;;;;;;;;;4988024;28;20536;-59
2024/02/05 11:25:52;;;;;;;24.75;3.92;;;;;;;;;;4994255;28;20649;-60
2024/02/05 11:28:18;;;;;;;17.98;3.22;;;;;;;;;;4992673;28;20045;-58
2024/02/05 11:30:44;;;;;;;25.83;3.50;;;;;;;;;;4993069;28;20037;-59
2024/02/05 11:33:11;;;;;;;32.67;5.03;;;;;;;;;;4990818;28;20038;-60
2024/02/05 11:35:46;;;;;;;21.63;4.00;;;;;;;;;;4978813;28;20034;-60
2024/02/05 11:38:12;;;;;;;20.05;3.35;;;;;;;;;;4991134;28;20034;-59
2024/02/05 11:40:39;;;;;;;30.08;3.97;;;;;;;;;;4992389;28;20078;-59
2024/02/05 11:43:05;;;;;;;18.20;3.83;;;;;;;;;;4984602;28;20034;-58
2024/02/05 11:45:35;;;;;;;26.13;4.63;;;;;;;;;;4982242;28;20030;-58
2024/02/05 11:48:03;;;;;;;19.95;3.38;;;;;;;;;;4991996;28;20113;-60
2024/02/05 11:50:29;;;;;;;23.95;3.80;;;;;;;;;;4991320;28;20034;-59
2024/02/05 11:52:55;;;;;;;17.38;3.20;;;;;;;;;;4991844;28;20053;-60
2024/02/05 11:55:23;;;;;;;15.55;4.25;;;;;;;;;;4984691;28;20053;-59
2024/02/05 11:57:51;;;;;;;18.08;4.13;;;;;;;;;;4992166;28;20382;-59
2024/02/05 12:00:17;;;;;;;17.38;3.78;;;;;;;;;;4990078;28;20033;-60
2024/02/05 12:02:44;;;;;;;24.48;3.90;;;;;;;;;;4991794;28;20037;-59
2024/02/05 12:05:11;;;;;;;19.95;3.65;;;;;;;;;;4992231;28;20034;-59
2024/02/05 12:07:38;;;;;;;20.45;3.22;;;;;;;;;;4984930;28;20472;-59
2024/02/05 12:10:05;;;;;;;22.50;3.90;;;;;;;;;;4987821;28;20034;-59
2024/02/05 12:12:31;;;;;;;16.00;3.35;;;;;;;;;;4996202;28;20204;-60
2024/02/05 12:14:57;;;;;;;17.95;3.30;;;;;;;;;;4981106;28;20678;-58
2024/02/05 12:17:23;;;;;;;20.48;3.58;;;;;;;;;;4982487;28;20037;-58
2024/02/05 12:19:57;;;;;;;24.83;3.70;;;;;;;;;;4981615;28;20019;-59
2024/02/05 12:22:23;;;;;;;21.27;3.75;;;;;;;;;;4988393;28;20033;-59
2024/02/05 12:24:49;;;;;;;19.73;4.90;;;;;;;;;;4987057;28;20038;-59
2024/02/05 12:27:15;;;;;;;20.42;4.35;;;;;;;;;;4986186;28;20064;-58
2024/02/05 12:29:41;;;;;;;18.20;3.75;;;;;;;;;;4987088;28;20073;-59
2024/02/05 12:32:07;;;;;;;23.92;3.35;;;;;;;;;;4993567;28;20033;-58
2024/02/05 12:34:34;;;;;;;22.02;4.28;;;;;;;;;;4986780;28;20113;-58
2024/02/05 12:37:00;;;;;;;21.52;3.80;;;;;;;;;;4991624;28;20684;-59
2024/02/05 12:39:26;;;;;;;18.63;4.57;;;;;;;;;;4993406;28;20627;-58
2024/02/05 12:41:53;;;;;;;32.38;4.50;;;;;;;;;;4992577;28;20531;-58
2024/02/05 12:44:19;;;;;;;28.52;4.45;;;;;;;;;;4991855;28;20034;-58
2024/02/05 12:46:45;;;;;;;20.77;4.45;;;;;;;;;;4991590;28;20064;-59
2024/02/05 12:49:11;;;;;;;13.02;3.97;;;;;;;;;;4985988;28;20110;-58
2024/02/05 12:51:37;;;;;;;21.52;5.00;;;;;;;;;;4986983;28;20030;-59
2024/02/05 12:54:05;;;;;;;19.17;3.70;;;;;;;;;;4995525;28;20861;-59
2024/02/05 12:56:31;;;;;;;20.10;4.10;;;;;;;;;;4989343;28;20038;-59
2024/02/05 12:59:00;;;;;;;25.25;3.72;;;;;;;;;;4993652;28;20457;-60
2024/02/05 13:01:26;;;;;;;20.55;4.18;;;;;;;;;;4987211;28;20618;-59
2024/02/05 13:03:52;;;;;;;20.65;3.67;;;;;;;;;;4990100;28;20173;-58
2024/02/05 13:06:22;;;;;;;16.70;4.15;;;;;;;;;;4977829;28;20609;-65
2024/02/05 13:08:48;;;;;;;17.70;4.00;;;;;;;;;;4986214;28;20030;-63
2024/02/05 13:11:14;;;;;;;25.33;3.88;;;;;;;;;;4991688;28;20034;-64
2024/02/05 13:13:40;;;;;;;22.92;4.40;;;;;;;;;;4994546;28;20034;-65
2024/02/05 13:16:06;;;;;;;15.73;3.75;;;;;;;;;;4989700;28;20038;-66
2024/02/05 13:18:32;;;;;;;25.83;4.20;;;;;;;;;;4992352;28;20182;-63
2024/02/05 13:20:58;;;;;;;14.43;4.13;;;;;;;;;;4988025;28;20124;-64
2024/02/05 13:23:25;;;;;;;24.80;4.15;;;;;;;;;;4997548;28;20022;-64
2024/02/05 13:25:51;;;;;;;21.17;4.95;;;;;;;;;;4986916;28;21615;-65
2024/02/05 13:28:19;;;;;;;25.08;4.18;;;;;;;;;;4995046;28;20034;-65
2024/02/05 13:30:46;;;;;;;14.57;3.50;;;;;;;;;;4988941;28;20033;-65
2024/02/05 13:33:13;;;;;;;20.55;5.30;;;;;;;;;;4986029;28;20029;-65
2024/02/05 13:35:39;;;;;;;19.52;4.05;;;;;;;;;;4986787;28;20835;-65
2024/02/05 13:38:04;;;;;;;22.55;3.83;;;;;;;;;;4988558;28;20080;-65
2024/02/05 13:40:31;;;;;;;17.27;3.90;;;;;;;;;;4988871;28;20570;-66
2024/02/05 13:42:57;;;;;;;19.20;3.90;;;;;;;;;;4993138;28;20572;-65
2024/02/05 13:45:24;;;;;;;23.58;4.53;;;;;;;;;;4990365;28;20148;-65
2024/02/05 13:47:51;;;;;;;14.23;4.47;;;;;;;;;;4990925;28;20088;-65
2024/02/05 13:50:17;;;;;;;18.10;4.75;;;;;;;;;;4988107;28;20034;-66
2024/02/05 13:52:44;;;;;;;21.90;4.43;;;;;;;;;;4982768;28;20079;-66
2024/02/05 13:55:12;;;;;;;26.13;4.60;;;;;;;;;;4974856;28;20034;-66
2024/02/05 13:57:39;;;;;;;18.17;4.30;;;;;;;;;;4989048;28;20117;-65
2024/02/05 14:00:05;;;;;;;19.40;4.00;;;;;;;;;;4985988;28;20037;-65
2024/02/05 14:02:34;;;;;;;19.05;4.55;;;;;;;;;;4982398;28;20097;-63
2024/02/05 14:05:00;;;;;;;25.05;4.25;;;;;;;;;;4979461;28;20101;-65
2024/02/05 14:07:26;;;;;;;17.40;4.03;;;;;;;;;;4986027;28;20026;-64
2024/02/05 14:09:52;;;;;;;16.58;4.53;;;;;;;;;;4985824;28;20499;-66
2024/02/05 14:12:18;;;;;;;15.10;4.18;;;;;;;;;;4991208;28;20026;-65
2024/02/05 14:14:44;;;;;;;19.42;3.80;;;;;;;;;;4988254;28;20129;-64
2024/02/05 14:17:10;;;;;;;20.42;4.63;;;;;;;;;;4986342;28;20045;-64
2024/02/05 14:19:36;;;;;;;26.60;5.78;;;;;;;;;;4983982;28;20041;-66
2024/02/05 14:22:03;;;;;;;22.48;4.35;;;;;;;;;;4982366;28;20507;-65
2024/02/05 14:24:29;;;;;;;14.88;3.05;;;;;;;;;;4990794;28;20053;-65
2024/02/05 14:26:55;;;;;;;17.25;5.10;;;;;;;;;;4987112;28;20058;-65